sensor_id;sensor_type;location;lat;lon;timestamp;P1;durP1;ratioP1;P2;durP2;ratioP2
80711;SDS011;70078;51.596;5.678;2024-03-25T00:01:12;18.27;;;3.33;;
80711;SDS011;70078;51.596;5.678;2024-03-25T00:03:37;15.90;;;4.10;;
80711;SDS011;70078;51.596;5.678;2024-03-25T00:06:02;9.32;;;3.08;;
80711;SDS011;70078;51.596;5.678;2024-03-25T00:08:28;9.68;;;3.13;;
80711;SDS011;70078;51.596;5.678;2024-03-25T00:10:53;10.70;;;3.50;;
80711;SDS011;70078;51.596;5.678;2024-03-25T00:13:20;9.98;;;3.60;;
80711;SDS011;70078;51.596;5.678;2024-03-25T00:15:45;12.70;;;3.40;;
80711;SDS011;70078;51.596;5.678;2024-03-25T00:18:11;13.57;;;3.67;;
80711;SDS011;70078;51.596;5.678;2024-03-25T00:20:36;15.20;;;4.10;;
80711;SDS011;70078;51.596;5.678;2024-03-25T00:23:02;12.27;;;3.33;;
80711;SDS011;70078;51.596;5.678;2024-03-25T00:25:27;12.23;;;3.38;;
80711;SDS011;70078;51.596;5.678;2024-03-25T00:27:53;12.13;;;3.63;;
80711;SDS011;70078;51.596;5.678;2024-03-25T00:30:18;9.10;;;3.13;;
80711;SDS011;70078;51.596;5.678;2024-03-25T00:32:44;12.98;;;3.80;;
80711;SDS011;70078;51.596;5.678;2024-03-25T00:35:10;10.30;;;3.40;;
80711;SDS011;70078;51.596;5.678;2024-03-25T00:37:35;10.95;;;3.28;;
80711;SDS011;70078;51.596;5.678;2024-03-25T00:40:00;12.25;;;4.45;;
80711;SDS011;70078;51.596;5.678;2024-03-25T00:42:26;14.10;;;3.70;;
80711;SDS011;70078;51.596;5.678;2024-03-25T00:44:51;8.00;;;3.90;;
80711;SDS011;70078;51.596;5.678;2024-03-25T00:47:16;10.30;;;3.42;;
80711;SDS011;70078;51.596;5.678;2024-03-25T00:49:42;11.98;;;3.47;;
80711;SDS011;70078;51.596;5.678;2024-03-25T00:52:07;12.52;;;3.35;;
80711;SDS011;70078;51.596;5.678;2024-03-25T00:54:32;10.30;;;2.75;;
80711;SDS011;70078;51.596;5.678;2024-03-25T00:56:58;8.85;;;2.80;;
80711;SDS011;70078;51.596;5.678;2024-03-25T00:59:23;15.23;;;3.60;;
80711;SDS011;70078;51.596;5.678;2024-03-25T01:01:49;7.13;;;2.95;;
80711;SDS011;70078;51.596;5.678;2024-03-25T01:04:14;9.85;;;3.38;;
80711;SDS011;70078;51.596;5.678;2024-03-25T01:06:40;10.95;;;3.17;;
80711;SDS011;70078;51.596;5.678;2024-03-25T01:09:05;8.82;;;3.05;;
80711;SDS011;70078;51.596;5.678;2024-03-25T01:11:32;10.95;;;3.58;;
80711;SDS011;70078;51.596;5.678;2024-03-25T01:13:58;14.60;;;3.65;;
80711;SDS011;70078;51.596;5.678;2024-03-25T01:16:23;10.02;;;3.28;;
80711;SDS011;70078;51.596;5.678;2024-03-25T01:18:48;6.88;;;2.85;;
80711;SDS011;70078;51.596;5.678;2024-03-25T01:21:14;11.18;;;3.45;;
80711;SDS011;70078;51.596;5.678;2024-03-25T01:23:40;8.63;;;2.97;;
80711;SDS011;70078;51.596;5.678;2024-03-25T01:26:05;11.00;;;3.50;;
80711;SDS011;70078;51.596;5.678;2024-03-25T01:28:31;10.93;;;2.42;;
80711;SDS011;70078;51.596;5.678;2024-03-25T01:30:57;8.98;;;3.42;;
80711;SDS011;70078;51.596;5.678;2024-03-25T01:33:22;11.32;;;2.58;;
80711;SDS011;70078;51.596;5.678;2024-03-25T01:35:47;11.98;;;2.78;;
80711;SDS011;70078;51.596;5.678;2024-03-25T01:38:13;12.38;;;2.88;;
80711;SDS011;70078;51.596;5.678;2024-03-25T01:40:38;8.32;;;2.90;;
80711;SDS011;70078;51.596;5.678;2024-03-25T01:43:04;11.82;;;3.47;;
80711;SDS011;70078;51.596;5.678;2024-03-25T01:45:30;7.75;;;2.75;;
80711;SDS011;70078;51.596;5.678;2024-03-25T01:48:07;12.73;;;3.15;;
80711;SDS011;70078;51.596;5.678;2024-03-25T01:50:44;8.20;;;2.60;;
80711;SDS011;70078;51.596;5.678;2024-03-25T01:53:11;14.02;;;2.97;;
80711;SDS011;70078;51.596;5.678;2024-03-25T01:55:38;11.02;;;2.58;;
80711;SDS011;70078;51.596;5.678;2024-03-25T01:58:04;10.63;;;2.58;;
80711;SDS011;70078;51.596;5.678;2024-03-25T02:00:30;12.32;;;2.70;;
80711;SDS011;70078;51.596;5.678;2024-03-25T02:02:57;10.73;;;3.72;;
80711;SDS011;70078;51.596;5.678;2024-03-25T02:05:23;8.35;;;2.33;;
80711;SDS011;70078;51.596;5.678;2024-03-25T02:07:48;12.13;;;3.72;;
80711;SDS011;70078;51.596;5.678;2024-03-25T02:10:14;6.65;;;2.60;;
80711;SDS011;70078;51.596;5.678;2024-03-25T02:12:44;6.72;;;2.33;;
80711;SDS011;70078;51.596;5.678;2024-03-25T02:15:11;6.78;;;2.50;;
80711;SDS011;70078;51.596;5.678;2024-03-25T02:17:38;12.63;;;3.63;;
80711;SDS011;70078;51.596;5.678;2024-03-25T02:20:04;11.02;;;2.85;;
80711;SDS011;70078;51.596;5.678;2024-03-25T02:22:30;12.88;;;3.22;;
80711;SDS011;70078;51.596;5.678;2024-03-25T02:24:57;11.85;;;3.25;;
80711;SDS011;70078;51.596;5.678;2024-03-25T02:27:23;11.18;;;3.10;;
80711;SDS011;70078;51.596;5.678;2024-03-25T02:29:49;9.57;;;2.85;;
80711;SDS011;70078;51.596;5.678;2024-03-25T02:32:15;15.07;;;3.00;;
80711;SDS011;70078;51.596;5.678;2024-03-25T02:34:41;8.55;;;3.78;;
80711;SDS011;70078;51.596;5.678;2024-03-25T02:37:10;10.27;;;2.78;;
80711;SDS011;70078;51.596;5.678;2024-03-25T02:39:36;11.05;;;3.65;;
80711;SDS011;70078;51.596;5.678;2024-03-25T02:42:02;11.57;;;2.95;;
80711;SDS011;70078;51.596;5.678;2024-03-25T02:44:27;6.68;;;3.22;;
80711;SDS011;70078;51.596;5.678;2024-03-25T02:46:53;14.23;;;3.47;;
80711;SDS011;70078;51.596;5.678;2024-03-25T02:49:19;9.13;;;2.65;;
80711;SDS011;70078;51.596;5.678;2024-03-25T02:51:44;12.35;;;3.22;;
80711;SDS011;70078;51.596;5.678;2024-03-25T02:54:09;8.82;;;2.83;;
80711;SDS011;70078;51.596;5.678;2024-03-25T02:56:35;7.72;;;2.65;;
80711;SDS011;70078;51.596;5.678;2024-03-25T02:59:02;15.15;;;3.50;;
80711;SDS011;70078;51.596;5.678;2024-03-25T03:01:27;8.80;;;2.65;;
80711;SDS011;70078;51.596;5.678;2024-03-25T03:03:52;8.18;;;3.10;;
80711;SDS011;70078;51.596;5.678;2024-03-25T03:06:18;6.95;;;2.38;;
80711;SDS011;70078;51.596;5.678;2024-03-25T03:08:43;11.95;;;3.30;;
80711;SDS011;70078;51.596;5.678;2024-03-25T03:11:09;7.93;;;3.42;;
80711;SDS011;70078;51.596;5.678;2024-03-25T03:13:35;10.57;;;3.00;;
80711;SDS011;70078;51.596;5.678;2024-03-25T03:16:00;12.30;;;2.60;;
80711;SDS011;70078;51.596;5.678;2024-03-25T03:18:25;17.42;;;3.13;;
80711;SDS011;70078;51.596;5.678;2024-03-25T03:20:51;8.73;;;1.58;;
80711;SDS011;70078;51.596;5.678;2024-03-25T03:23:16;8.98;;;2.55;;
80711;SDS011;70078;51.596;5.678;2024-03-25T03:25:42;6.93;;;3.03;;
80711;SDS011;70078;51.596;5.678;2024-03-25T03:28:07;14.52;;;2.72;;
80711;SDS011;70078;51.596;5.678;2024-03-25T03:30:33;7.43;;;2.83;;
80711;SDS011;70078;51.596;5.678;2024-03-25T03:32:58;9.57;;;2.58;;
80711;SDS011;70078;51.596;5.678;2024-03-25T03:35:23;7.85;;;2.10;;
80711;SDS011;70078;51.596;5.678;2024-03-25T03:37:49;7.80;;;2.30;;
80711;SDS011;70078;51.596;5.678;2024-03-25T03:40:14;7.80;;;2.30;;
80711;SDS011;70078;51.596;5.678;2024-03-25T03:42:39;11.93;;;2.95;;
80711;SDS011;70078;51.596;5.678;2024-03-25T03:45:05;7.55;;;2.47;;
80711;SDS011;70078;51.596;5.678;2024-03-25T03:47:31;9.93;;;3.58;;
80711;SDS011;70078;51.596;5.678;2024-03-25T03:49:57;7.22;;;2.50;;
80711;SDS011;70078;51.596;5.678;2024-03-25T03:52:22;9.48;;;3.15;;
80711;SDS011;70078;51.596;5.678;2024-03-25T03:54:48;11.63;;;2.38;;
80711;SDS011;70078;51.596;5.678;2024-03-25T03:57:13;10.27;;;2.70;;
80711;SDS011;70078;51.596;5.678;2024-03-25T03:59:38;7.47;;;2.45;;
80711;SDS011;70078;51.596;5.678;2024-03-25T04:02:04;7.60;;;2.45;;
80711;SDS011;70078;51.596;5.678;2024-03-25T04:04:29;9.90;;;2.35;;
80711;SDS011;70078;51.596;5.678;2024-03-25T04:06:55;10.38;;;4.05;;
80711;SDS011;70078;51.596;5.678;2024-03-25T04:09:20;9.85;;;2.97;;
80711;SDS011;70078;51.596;5.678;2024-03-25T04:11:46;9.05;;;3.33;;
80711;SDS011;70078;51.596;5.678;2024-03-25T04:14:11;11.57;;;2.65;;
80711;SDS011;70078;51.596;5.678;2024-03-25T04:16:36;15.25;;;3.28;;
80711;SDS011;70078;51.596;5.678;2024-03-25T04:19:01;4.88;;;2.83;;
80711;SDS011;70078;51.596;5.678;2024-03-25T04:21:27;8.15;;;2.58;;
80711;SDS011;70078;51.596;5.678;2024-03-25T04:23:52;8.65;;;3.03;;
80711;SDS011;70078;51.596;5.678;2024-03-25T04:26:18;11.23;;;3.10;;
80711;SDS011;70078;51.596;5.678;2024-03-25T04:28:44;9.60;;;2.90;;
80711;SDS011;70078;51.596;5.678;2024-03-25T04:31:09;11.27;;;3.33;;
80711;SDS011;70078;51.596;5.678;2024-03-25T04:33:35;8.02;;;2.30;;
80711;SDS011;70078;51.596;5.678;2024-03-25T04:36:00;12.77;;;3.40;;
80711;SDS011;70078;51.596;5.678;2024-03-25T04:38:25;8.73;;;3.50;;
80711;SDS011;70078;51.596;5.678;2024-03-25T04:40:51;9.40;;;3.40;;
80711;SDS011;70078;51.596;5.678;2024-03-25T04:43:16;7.20;;;3.15;;
80711;SDS011;70078;51.596;5.678;2024-03-25T04:45:42;8.93;;;3.42;;
80711;SDS011;70078;51.596;5.678;2024-03-25T04:48:07;13.57;;;3.95;;
80711;SDS011;70078;51.596;5.678;2024-03-25T04:50:33;9.10;;;4.20;;
80711;SDS011;70078;51.596;5.678;2024-03-25T04:52:59;10.02;;;3.78;;
80711;SDS011;70078;51.596;5.678;2024-03-25T04:55:24;13.63;;;4.32;;
80711;SDS011;70078;51.596;5.678;2024-03-25T04:57:50;14.40;;;4.28;;
80711;SDS011;70078;51.596;5.678;2024-03-25T05:00:15;8.23;;;4.20;;
80711;SDS011;70078;51.596;5.678;2024-03-25T05:02:41;10.85;;;4.22;;
80711;SDS011;70078;51.596;5.678;2024-03-25T05:05:06;7.85;;;3.85;;
80711;SDS011;70078;51.596;5.678;2024-03-25T05:09:58;14.15;;;4.20;;
80711;SDS011;70078;51.596;5.678;2024-03-25T05:12:23;11.70;;;4.07;;
80711;SDS011;70078;51.596;5.678;2024-03-25T05:14:48;14.32;;;5.00;;
80711;SDS011;70078;51.596;5.678;2024-03-25T05:17:14;12.18;;;5.20;;
80711;SDS011;70078;51.596;5.678;2024-03-25T05:19:39;10.45;;;3.75;;
80711;SDS011;70078;51.596;5.678;2024-03-25T05:22:04;13.57;;;5.32;;
80711;SDS011;70078;51.596;5.678;2024-03-25T05:24:30;14.88;;;4.90;;
80711;SDS011;70078;51.596;5.678;2024-03-25T05:26:55;10.80;;;4.15;;
80711;SDS011;70078;51.596;5.678;2024-03-25T05:29:20;13.57;;;4.80;;
80711;SDS011;70078;51.596;5.678;2024-03-25T05:31:58;16.23;;;4.63;;
80711;SDS011;70078;51.596;5.678;2024-03-25T05:34:24;9.60;;;4.32;;
80711;SDS011;70078;51.596;5.678;2024-03-25T05:36:50;14.10;;;5.22;;
80711;SDS011;70078;51.596;5.678;2024-03-25T05:39:16;13.20;;;4.20;;
80711;SDS011;70078;51.596;5.678;2024-03-25T05:41:41;10.82;;;3.83;;
80711;SDS011;70078;51.596;5.678;2024-03-25T05:44:07;7.60;;;4.20;;
80711;SDS011;70078;51.596;5.678;2024-03-25T05:46:32;10.52;;;4.13;;
80711;SDS011;70078;51.596;5.678;2024-03-25T05:49:00;7.97;;;4.28;;
80711;SDS011;70078;51.596;5.678;2024-03-25T05:51:26;12.73;;;4.32;;
80711;SDS011;70078;51.596;5.678;2024-03-25T05:53:52;8.60;;;4.55;;
80711;SDS011;70078;51.596;5.678;2024-03-25T05:56:17;9.80;;;4.03;;
80711;SDS011;70078;51.596;5.678;2024-03-25T05:58:42;12.38;;;5.10;;
80711;SDS011;70078;51.596;5.678;2024-03-25T06:01:08;9.93;;;4.55;;
80711;SDS011;70078;51.596;5.678;2024-03-25T06:03:33;9.07;;;4.78;;
80711;SDS011;70078;51.596;5.678;2024-03-25T06:05:59;9.45;;;4.60;;
80711;SDS011;70078;51.596;5.678;2024-03-25T06:08:24;9.80;;;5.38;;
80711;SDS011;70078;51.596;5.678;2024-03-25T06:10:50;12.90;;;5.47;;
80711;SDS011;70078;51.596;5.678;2024-03-25T06:13:16;11.60;;;5.38;;
80711;SDS011;70078;51.596;5.678;2024-03-25T06:15:41;10.52;;;5.38;;
80711;SDS011;70078;51.596;5.678;2024-03-25T06:18:07;12.15;;;6.75;;
80711;SDS011;70078;51.596;5.678;2024-03-25T06:20:32;13.25;;;6.15;;
80711;SDS011;70078;51.596;5.678;2024-03-25T06:22:57;10.73;;;6.05;;
80711;SDS011;70078;51.596;5.678;2024-03-25T06:25:23;12.32;;;6.85;;
80711;SDS011;70078;51.596;5.678;2024-03-25T06:27:48;14.75;;;6.18;;
80711;SDS011;70078;51.596;5.678;2024-03-25T06:30:13;12.80;;;6.60;;
80711;SDS011;70078;51.596;5.678;2024-03-25T06:32:57;15.77;;;5.88;;
80711;SDS011;70078;51.596;5.678;2024-03-25T06:35:44;12.15;;;5.95;;
80711;SDS011;70078;51.596;5.678;2024-03-25T06:38:09;12.10;;;6.38;;
80711;SDS011;70078;51.596;5.678;2024-03-25T06:40:38;12.75;;;6.22;;
80711;SDS011;70078;51.596;5.678;2024-03-25T06:43:03;16.45;;;7.25;;
80711;SDS011;70078;51.596;5.678;2024-03-25T06:45:29;13.95;;;6.47;;
80711;SDS011;70078;51.596;5.678;2024-03-25T06:47:55;13.00;;;6.65;;
80711;SDS011;70078;51.596;5.678;2024-03-25T06:50:20;11.88;;;7.35;;
80711;SDS011;70078;51.596;5.678;2024-03-25T06:52:46;15.70;;;7.00;;
80711;SDS011;70078;51.596;5.678;2024-03-25T06:55:11;12.57;;;6.70;;
80711;SDS011;70078;51.596;5.678;2024-03-25T06:57:37;11.98;;;6.72;;
80711;SDS011;70078;51.596;5.678;2024-03-25T07:00:02;13.43;;;7.10;;
80711;SDS011;70078;51.596;5.678;2024-03-25T07:02:31;14.95;;;7.15;;
80711;SDS011;70078;51.596;5.678;2024-03-25T07:04:56;12.73;;;7.68;;
80711;SDS011;70078;51.596;5.678;2024-03-25T07:07:22;15.55;;;7.05;;
80711;SDS011;70078;51.596;5.678;2024-03-25T07:09:47;12.57;;;7.18;;
80711;SDS011;70078;51.596;5.678;2024-03-25T07:12:12;13.30;;;6.97;;
80711;SDS011;70078;51.596;5.678;2024-03-25T07:14:38;16.45;;;9.38;;
80711;SDS011;70078;51.596;5.678;2024-03-25T07:17:03;20.63;;;8.60;;
80711;SDS011;70078;51.596;5.678;2024-03-25T07:19:28;13.57;;;8.30;;
80711;SDS011;70078;51.596;5.678;2024-03-25T07:21:54;12.98;;;7.25;;
80711;SDS011;70078;51.596;5.678;2024-03-25T07:24:19;13.15;;;8.23;;
80711;SDS011;70078;51.596;5.678;2024-03-25T07:26:44;13.48;;;7.40;;
80711;SDS011;70078;51.596;5.678;2024-03-25T07:29:10;16.15;;;8.57;;
80711;SDS011;70078;51.596;5.678;2024-03-25T07:31:35;17.50;;;7.68;;
80711;SDS011;70078;51.596;5.678;2024-03-25T07:34:00;16.73;;;6.80;;
80711;SDS011;70078;51.596;5.678;2024-03-25T07:36:26;13.23;;;7.38;;
80711;SDS011;70078;51.596;5.678;2024-03-25T07:38:51;13.65;;;7.18;;
80711;SDS011;70078;51.596;5.678;2024-03-25T07:41:17;12.80;;;7.03;;
80711;SDS011;70078;51.596;5.678;2024-03-25T07:43:43;12.15;;;6.70;;
80711;SDS011;70078;51.596;5.678;2024-03-25T07:46:09;12.18;;;6.97;;
80711;SDS011;70078;51.596;5.678;2024-03-25T07:48:34;11.73;;;7.00;;
80711;SDS011;70078;51.596;5.678;2024-03-25T07:51:00;17.00;;;8.32;;
80711;SDS011;70078;51.596;5.678;2024-03-25T07:53:26;15.48;;;6.40;;
80711;SDS011;70078;51.596;5.678;2024-03-25T07:55:51;17.90;;;7.63;;
80711;SDS011;70078;51.596;5.678;2024-03-25T07:58:16;12.65;;;7.38;;
80711;SDS011;70078;51.596;5.678;2024-03-25T08:00:42;14.73;;;7.05;;
80711;SDS011;70078;51.596;5.678;2024-03-25T08:03:07;15.32;;;6.63;;
80711;SDS011;70078;51.596;5.678;2024-03-25T08:05:33;15.45;;;7.20;;
80711;SDS011;70078;51.596;5.678;2024-03-25T08:07:58;15.38;;;7.03;;
80711;SDS011;70078;51.596;5.678;2024-03-25T08:10:23;15.80;;;6.97;;
80711;SDS011;70078;51.596;5.678;2024-03-25T08:12:49;13.27;;;7.22;;
80711;SDS011;70078;51.596;5.678;2024-03-25T08:15:14;17.42;;;6.60;;
80711;SDS011;70078;51.596;5.678;2024-03-25T08:17:39;13.57;;;6.82;;
80711;SDS011;70078;51.596;5.678;2024-03-25T08:20:05;15.95;;;7.57;;
80711;SDS011;70078;51.596;5.678;2024-03-25T08:22:30;13.43;;;7.35;;
80711;SDS011;70078;51.596;5.678;2024-03-25T08:24:56;15.63;;;6.57;;
80711;SDS011;70078;51.596;5.678;2024-03-25T08:27:21;14.60;;;6.63;;
80711;SDS011;70078;51.596;5.678;2024-03-25T08:29:47;13.35;;;6.25;;
80711;SDS011;70078;51.596;5.678;2024-03-25T08:32:14;12.80;;;7.18;;
80711;SDS011;70078;51.596;5.678;2024-03-25T08:34:39;13.05;;;6.93;;
80711;SDS011;70078;51.596;5.678;2024-03-25T08:37:04;11.93;;;6.93;;
80711;SDS011;70078;51.596;5.678;2024-03-25T08:39:29;15.15;;;6.72;;
80711;SDS011;70078;51.596;5.678;2024-03-25T08:41:55;20.02;;;7.57;;
80711;SDS011;70078;51.596;5.678;2024-03-25T08:44:20;12.85;;;6.47;;
80711;SDS011;70078;51.596;5.678;2024-03-25T08:46:45;14.48;;;7.18;;
80711;SDS011;70078;51.596;5.678;2024-03-25T08:49:11;14.05;;;5.47;;
80711;SDS011;70078;51.596;5.678;2024-03-25T08:51:36;12.65;;;7.72;;
80711;SDS011;70078;51.596;5.678;2024-03-25T08:54:01;13.38;;;7.38;;
80711;SDS011;70078;51.596;5.678;2024-03-25T08:58:53;15.27;;;6.50;;
80711;SDS011;70078;51.596;5.678;2024-03-25T09:01:19;12.98;;;6.38;;
80711;SDS011;70078;51.596;5.678;2024-03-25T09:06:10;18.17;;;7.97;;
80711;SDS011;70078;51.596;5.678;2024-03-25T09:11:21;17.42;;;8.02;;
80711;SDS011;70078;51.596;5.678;2024-03-25T09:13:49;13.35;;;7.07;;
80711;SDS011;70078;51.596;5.678;2024-03-25T09:18:40;17.15;;;8.35;;
80711;SDS011;70078;51.596;5.678;2024-03-25T09:21:06;16.65;;;8.75;;
80711;SDS011;70078;51.596;5.678;2024-03-25T09:25:57;15.68;;;8.20;;
80711;SDS011;70078;51.596;5.678;2024-03-25T09:28:22;15.32;;;7.70;;
80711;SDS011;70078;51.596;5.678;2024-03-25T09:30:48;13.27;;;7.82;;
80711;SDS011;70078;51.596;5.678;2024-03-25T09:33:14;14.18;;;7.13;;
80711;SDS011;70078;51.596;5.678;2024-03-25T09:35:39;13.32;;;8.15;;
80711;SDS011;70078;51.596;5.678;2024-03-25T09:38:05;19.50;;;7.75;;
80711;SDS011;70078;51.596;5.678;2024-03-25T09:40:30;15.15;;;7.72;;
80711;SDS011;70078;51.596;5.678;2024-03-25T09:42:56;13.65;;;7.03;;
80711;SDS011;70078;51.596;5.678;2024-03-25T09:45:23;15.80;;;7.57;;
80711;SDS011;70078;51.596;5.678;2024-03-25T09:47:50;14.82;;;8.10;;
80711;SDS011;70078;51.596;5.678;2024-03-25T09:50:16;13.82;;;8.02;;
80711;SDS011;70078;51.596;5.678;2024-03-25T09:52:44;14.40;;;7.22;;
80711;SDS011;70078;51.596;5.678;2024-03-25T09:55:10;12.80;;;6.93;;
80711;SDS011;70078;51.596;5.678;2024-03-25T09:57:36;13.70;;;8.02;;
80711;SDS011;70078;51.596;5.678;2024-03-25T10:00:03;14.63;;;6.57;;
80711;SDS011;70078;51.596;5.678;2024-03-25T10:02:30;11.93;;;5.93;;
80711;SDS011;70078;51.596;5.678;2024-03-25T10:04:55;11.40;;;6.57;;
80711;SDS011;70078;51.596;5.678;2024-03-25T10:07:24;15.15;;;6.45;;
80711;SDS011;70078;51.596;5.678;2024-03-25T10:09:50;10.60;;;6.20;;
80711;SDS011;70078;51.596;5.678;2024-03-25T10:12:16;9.75;;;6.32;;
80711;SDS011;70078;51.596;5.678;2024-03-25T10:14:41;11.80;;;6.20;;
80711;SDS011;70078;51.596;5.678;2024-03-25T10:17:07;16.30;;;6.32;;
80711;SDS011;70078;51.596;5.678;2024-03-25T10:19:33;13.43;;;6.18;;
80711;SDS011;70078;51.596;5.678;2024-03-25T10:22:02;10.15;;;6.03;;
80711;SDS011;70078;51.596;5.678;2024-03-25T10:24:44;11.77;;;7.43;;
80711;SDS011;70078;51.596;5.678;2024-03-25T10:27:11;10.70;;;6.63;;
80711;SDS011;70078;51.596;5.678;2024-03-25T10:29:56;11.05;;;5.35;;
80711;SDS011;70078;51.596;5.678;2024-03-25T10:32:22;8.95;;;5.40;;
80711;SDS011;70078;51.596;5.678;2024-03-25T10:34:50;8.43;;;5.25;;
80711;SDS011;70078;51.596;5.678;2024-03-25T10:37:16;9.57;;;5.30;;
80711;SDS011;70078;51.596;5.678;2024-03-25T10:39:49;6.72;;;4.60;;
80711;SDS011;70078;51.596;5.678;2024-03-25T10:42:19;10.43;;;4.00;;
80711;SDS011;70078;51.596;5.678;2024-03-25T10:44:45;8.07;;;5.07;;
80711;SDS011;70078;51.596;5.678;2024-03-25T10:47:14;9.43;;;4.85;;
80711;SDS011;70078;51.596;5.678;2024-03-25T10:49:48;7.82;;;4.15;;
80711;SDS011;70078;51.596;5.678;2024-03-25T10:52:15;9.02;;;4.65;;
80711;SDS011;70078;51.596;5.678;2024-03-25T10:54:42;7.57;;;4.25;;
80711;SDS011;70078;51.596;5.678;2024-03-25T10:57:08;7.70;;;4.07;;
80711;SDS011;70078;51.596;5.678;2024-03-25T10:59:35;6.10;;;4.10;;
80711;SDS011;70078;51.596;5.678;2024-03-25T11:02:06;5.97;;;3.85;;
80711;SDS011;70078;51.596;5.678;2024-03-25T11:04:32;7.80;;;4.63;;
80711;SDS011;70078;51.596;5.678;2024-03-25T11:07:08;7.72;;;4.43;;
80711;SDS011;70078;51.596;5.678;2024-03-25T11:09:37;8.63;;;4.97;;
80711;SDS011;70078;51.596;5.678;2024-03-25T11:12:03;10.57;;;5.32;;
80711;SDS011;70078;51.596;5.678;2024-03-25T11:14:29;7.80;;;3.58;;
80711;SDS011;70078;51.596;5.678;2024-03-25T11:16:57;8.70;;;5.93;;
80711;SDS011;70078;51.596;5.678;2024-03-25T11:19:25;7.80;;;4.53;;
80711;SDS011;70078;51.596;5.678;2024-03-25T11:21:51;10.02;;;4.72;;
80711;SDS011;70078;51.596;5.678;2024-03-25T11:24:26;7.97;;;5.03;;
80711;SDS011;70078;51.596;5.678;2024-03-25T11:26:55;6.80;;;4.85;;
80711;SDS011;70078;51.596;5.678;2024-03-25T11:29:21;10.75;;;5.65;;
80711;SDS011;70078;51.596;5.678;2024-03-25T11:31:48;10.40;;;5.85;;
80711;SDS011;70078;51.596;5.678;2024-03-25T11:34:14;8.68;;;5.32;;
80711;SDS011;70078;51.596;5.678;2024-03-25T11:36:40;10.27;;;5.85;;
80711;SDS011;70078;51.596;5.678;2024-03-25T11:39:06;9.30;;;5.28;;
80711;SDS011;70078;51.596;5.678;2024-03-25T11:41:43;8.38;;;5.70;;
80711;SDS011;70078;51.596;5.678;2024-03-25T11:44:09;8.55;;;6.00;;
80711;SDS011;70078;51.596;5.678;2024-03-25T11:46:36;7.25;;;3.17;;
80711;SDS011;70078;51.596;5.678;2024-03-25T11:49:15;11.23;;;5.35;;
80711;SDS011;70078;51.596;5.678;2024-03-25T11:51:42;8.95;;;5.20;;
80711;SDS011;70078;51.596;5.678;2024-03-25T11:54:12;7.63;;;5.13;;
80711;SDS011;70078;51.596;5.678;2024-03-25T11:56:38;8.27;;;4.78;;
80711;SDS011;70078;51.596;5.678;2024-03-25T11:59:04;6.90;;;4.55;;
80711;SDS011;70078;51.596;5.678;2024-03-25T12:01:30;7.90;;;5.60;;
80711;SDS011;70078;51.596;5.678;2024-03-25T12:03:56;7.57;;;5.07;;
80711;SDS011;70078;51.596;5.678;2024-03-25T12:06:21;9.10;;;4.40;;
80711;SDS011;70078;51.596;5.678;2024-03-25T12:08:47;7.97;;;5.20;;
80711;SDS011;70078;51.596;5.678;2024-03-25T12:11:31;8.60;;;4.95;;
80711;SDS011;70078;51.596;5.678;2024-03-25T12:13:57;5.90;;;4.65;;
80711;SDS011;70078;51.596;5.678;2024-03-25T12:16:24;8.98;;;5.47;;
80711;SDS011;70078;51.596;5.678;2024-03-25T12:18:50;8.95;;;4.85;;
80711;SDS011;70078;51.596;5.678;2024-03-25T12:21:17;6.65;;;4.53;;
80711;SDS011;70078;51.596;5.678;2024-03-25T12:23:42;9.10;;;4.70;;
80711;SDS011;70078;51.596;5.678;2024-03-25T12:26:08;5.90;;;3.33;;
80711;SDS011;70078;51.596;5.678;2024-03-25T12:28:33;7.35;;;3.47;;
80711;SDS011;70078;51.596;5.678;2024-03-25T12:31:01;7.13;;;5.03;;
80711;SDS011;70078;51.596;5.678;2024-03-25T12:33:27;6.63;;;4.25;;
80711;SDS011;70078;51.596;5.678;2024-03-25T12:35:53;8.23;;;4.82;;
80711;SDS011;70078;51.596;5.678;2024-03-25T12:38:25;5.72;;;4.40;;
80711;SDS011;70078;51.596;5.678;2024-03-25T12:40:51;6.68;;;4.50;;
80711;SDS011;70078;51.596;5.678;2024-03-25T12:43:17;5.72;;;3.95;;
80711;SDS011;70078;51.596;5.678;2024-03-25T12:45:43;6.90;;;4.40;;
80711;SDS011;70078;51.596;5.678;2024-03-25T12:48:09;6.35;;;4.47;;
80711;SDS011;70078;51.596;5.678;2024-03-25T12:50:35;6.03;;;4.03;;
80711;SDS011;70078;51.596;5.678;2024-03-25T12:53:01;7.28;;;5.60;;
80711;SDS011;70078;51.596;5.678;2024-03-25T12:55:28;7.75;;;4.32;;
80711;SDS011;70078;51.596;5.678;2024-03-25T12:57:54;7.75;;;4.22;;
80711;SDS011;70078;51.596;5.678;2024-03-25T13:00:19;7.10;;;4.38;;
80711;SDS011;70078;51.596;5.678;2024-03-25T13:02:45;6.05;;;4.25;;
80711;SDS011;70078;51.596;5.678;2024-03-25T13:05:10;6.60;;;4.20;;
80711;SDS011;70078;51.596;5.678;2024-03-25T13:07:35;5.40;;;4.30;;
80711;SDS011;70078;51.596;5.678;2024-03-25T13:10:01;6.50;;;3.88;;
80711;SDS011;70078;51.596;5.678;2024-03-25T13:12:30;4.35;;;3.78;;
80711;SDS011;70078;51.596;5.678;2024-03-25T13:14:55;5.93;;;3.90;;
80711;SDS011;70078;51.596;5.678;2024-03-25T13:17:21;5.70;;;3.63;;
80711;SDS011;70078;51.596;5.678;2024-03-25T13:19:46;4.90;;;3.50;;
80711;SDS011;70078;51.596;5.678;2024-03-25T13:22:11;4.75;;;4.00;;
80711;SDS011;70078;51.596;5.678;2024-03-25T13:24:37;5.32;;;4.57;;
80711;SDS011;70078;51.596;5.678;2024-03-25T13:27:02;5.82;;;3.60;;
80711;SDS011;70078;51.596;5.678;2024-03-25T13:29:28;5.45;;;3.60;;
80711;SDS011;70078;51.596;5.678;2024-03-25T13:31:53;5.45;;;3.47;;
80711;SDS011;70078;51.596;5.678;2024-03-25T13:34:18;5.07;;;3.72;;
80711;SDS011;70078;51.596;5.678;2024-03-25T13:36:44;8.15;;;3.92;;
80711;SDS011;70078;51.596;5.678;2024-03-25T13:39:09;5.90;;;3.78;;
80711;SDS011;70078;51.596;5.678;2024-03-25T13:41:35;7.20;;;3.53;;
80711;SDS011;70078;51.596;5.678;2024-03-25T13:44:00;5.35;;;3.88;;
80711;SDS011;70078;51.596;5.678;2024-03-25T13:46:26;5.28;;;3.80;;
80711;SDS011;70078;51.596;5.678;2024-03-25T13:48:51;6.25;;;3.75;;
80711;SDS011;70078;51.596;5.678;2024-03-25T13:51:17;5.40;;;3.88;;
80711;SDS011;70078;51.596;5.678;2024-03-25T13:53:42;6.53;;;3.15;;
80711;SDS011;70078;51.596;5.678;2024-03-25T13:56:07;5.03;;;4.03;;
80711;SDS011;70078;51.596;5.678;2024-03-25T13:58:33;6.68;;;3.90;;
80711;SDS011;70078;51.596;5.678;2024-03-25T14:00:58;4.97;;;3.78;;
80711;SDS011;70078;51.596;5.678;2024-03-25T14:03:24;4.80;;;3.58;;
80711;SDS011;70078;51.596;5.678;2024-03-25T14:05:49;5.78;;;3.65;;
80711;SDS011;70078;51.596;5.678;2024-03-25T14:08:14;5.22;;;3.78;;
80711;SDS011;70078;51.596;5.678;2024-03-25T14:10:40;6.07;;;3.60;;
80711;SDS011;70078;51.596;5.678;2024-03-25T14:13:05;6.22;;;3.10;;
80711;SDS011;70078;51.596;5.678;2024-03-25T14:15:30;5.32;;;3.70;;
80711;SDS011;70078;51.596;5.678;2024-03-25T14:17:56;4.10;;;3.10;;
80711;SDS011;70078;51.596;5.678;2024-03-25T14:20:21;5.70;;;3.38;;
80711;SDS011;70078;51.596;5.678;2024-03-25T14:22:46;6.30;;;3.35;;
80711;SDS011;70078;51.596;5.678;2024-03-25T14:25:12;5.32;;;3.88;;
80711;SDS011;70078;51.596;5.678;2024-03-25T14:27:38;4.90;;;3.20;;
80711;SDS011;70078;51.596;5.678;2024-03-25T14:30:03;4.90;;;3.45;;
80711;SDS011;70078;51.596;5.678;2024-03-25T14:32:29;4.38;;;2.90;;
80711;SDS011;70078;51.596;5.678;2024-03-25T14:34:55;4.38;;;3.63;;
80711;SDS011;70078;51.596;5.678;2024-03-25T14:37:21;3.40;;;2.80;;
80711;SDS011;70078;51.596;5.678;2024-03-25T14:39:46;4.50;;;3.08;;
80711;SDS011;70078;51.596;5.678;2024-03-25T14:42:12;4.05;;;1.80;;
80711;SDS011;70078;51.596;5.678;2024-03-25T14:44:37;4.32;;;3.45;;
80711;SDS011;70078;51.596;5.678;2024-03-25T14:47:03;5.50;;;3.53;;
80711;SDS011;70078;51.596;5.678;2024-03-25T14:49:29;4.85;;;3.55;;